Terminal Aerodrome Forecast
Issued by NWS Memphis, TN

Home | Current Version | Previous Version | Text Only | Print | Product List | Glossary On
Versions: 1 2 3 4 5 6 7 8 9 10 11 12 13 14 15 16 17 18 19 20 21 22 23 24 25 26 27 28 29
000
FTUS44 KMEG 261130
TAFMEM
TAF
KMEM 261130Z 2612/2712 02006KT P6SM SCT012
      TEMPO 2613/2617 OVC012
     FM261700 02010KT P6SM OVC025
     FM261900 03010G15KT P6SM BKN035
     FM262100 04012KT P6SM SCT035
     FM270000 05012KT P6SM BKN250=

USA.gov is the U.S. government's official web portal to all federal, state and local government web resources and services.